In Rescue
 
Open Full Screen Window  High Contrast Mode
Wind Gusting 00 knots
04
March 19, 2019 7:38 PM EDT
Weather Information
Wind Direction
  210 °
Wind Speed
  04 kt (5 mph)
Wind Gust
  00 kt (0 mph)
Altimeter
30.21 in
Visibility
10 SM
Temperature
05° C
41° F
Dewpoint
-05° C
23° F
Humidity
49%
1hr Rain Fall
00.00 in.
24hr Rain Fall
00.00 in.
Sky Condition
Clear
VFR

METAR KY31 192338Z AUTO 21004KT 10SM CLR 05/M05 A3021 RMK AO2 T00501049

FAA Disclaimer: The data displayed is for advisory purposes only and is not to be used for flight planning or operations.